• Join FlightAware (Why Join?)
  • Login
  • US Flag 
10:03AM EDT


 

Airport Tracker/Info


-or-


 

Live Flight TrackerFlight Track Log ✈ OPT438 ✈ 14-Feb-2014 ✈ KADS - KMKC

Flight Track Log - Related Links

Times and Time Zones

All times are in EST time to prevent confusion due to time zone crossing. See the OPT438 flight status page for this flight to view local times or setup timezone preferences in your user account.

Time Position Orientation Groundspeed Altitude Reporting Facility
EST Latitude Longitude Course Direction KTS MPH feet Rate Location/Type
10:22AM 32.9667 -96.8333 107° East 171 197 1,400  Level Dallas / Fort Worth TRACON
10:23AM 32.9500 -96.7667 107° East 246 283 2,400 1,680 Climbing Dallas / Fort Worth TRACON
10:24AM 32.9833 -96.7000 59° Northeast 290 334 4,700 2,520 Climbing Dallas / Fort Worth TRACON
10:25AM 33.0000 -96.6000 79° East 307 353 7,700 2,520 Climbing Dallas / Fort Worth TRACON
10:27AM 33.0903 -96.6433 338° Northwest 278 320 10,900 2,220 Climbing Fort Worth Center
10:28AM 33.1736 -96.6650 348° North 308 354 13,000 2,040 Climbing Fort Worth Center
10:29AM 33.2692 -96.6847 350° North 325 374 15,200 1,980 Climbing Fort Worth Center
10:30AM 33.3619 -96.6614 12° North 338 389 17,200 2,040 Climbing Fort Worth Center
10:31AM 33.4606 -96.6375 11° North 336 387 19,500 2,040 Climbing Fort Worth Center
10:32AM 33.5475 -96.6175 11° North 320 368 21,500 1,800 Climbing Fort Worth Center
10:33AM 33.6411 -96.5942 12° North 317 365 23,300 1,500 Climbing Fort Worth Center
10:34AM 33.7303 -96.5731 11° North 332 382 24,700 1,380 Climbing Fort Worth Center
10:35AM 33.8231 -96.5517 11° North 340 391 26,200 1,440 Climbing Fort Worth Center
10:36AM 33.9178 -96.5297 11° North 346 398 27,700 1,440 Climbing Fort Worth Center
10:37AM 34.0142 -96.5064 11° North 351 404 29,200 1,740 Climbing Fort Worth Center
10:38AM 34.1072 -96.4828 12° North 345 397 31,400 2,460 Climbing Fort Worth Center
10:39AM 34.2058 -96.4586 11° North 303 349 34,300 1,920 Climbing Fort Worth Center
10:40AM 34.2861 -96.4389 11° North 297 342 35,400 900 Climbing Fort Worth Center
10:41AM 34.3706 -96.4181 12° North 307 353 36,200 720 Climbing Fort Worth Center
10:42AM 34.4583 -96.3978 11° North 320 368 36,900 720 Climbing Fort Worth Center
10:43AM 34.5494 -96.3742 12° North 333 383 37,700 780 Climbing Fort Worth Center
10:44AM 34.6619 -96.3464 11° North 344 396 38,600 600 Climbing Fort Worth Center
10:45AM 34.7575 -96.3231 11° North 350 403 39,000 180 Climbing Fort Worth Center
10:46AM 34.8594 -96.2989 11° North 370 426 39,000  Level Fort Worth Center
10:47AM 34.9625 -96.2736 11° North 379 436 39,000  Level Fort Worth Center
10:48AM 35.0631 -96.2497 11° North 375 432 39,000  Level Fort Worth Center
10:49AM 35.1858 -96.2181 12° North 375 432 39,000  Level Fort Worth Center
10:50AM 35.2883 -96.1925 12° North 376 433 39,000  Level Fort Worth Center
10:51AM 35.3886 -96.1675 11° North 371 427 39,000  Level Fort Worth Center
10:52AM 35.4453 -96.1519 13° North 366 421 39,000  Level Kansas City Center
10:53AM 35.5436 -96.1292 11° North 363 418 39,000  Level Kansas City Center
10:54AM 35.6397 -96.1039 12° North 357 411 39,000  Level Kansas City Center
10:55AM 35.7369 -96.0803 11° North 358 412 39,000  Level Kansas City Center
10:56AM 35.8425 -96.0533 12° North 360 414 39,000  Level Kansas City Center
10:57AM 35.9419 -96.0286 11° North 361 415 39,000  Level Kansas City Center
10:58AM 36.0419 -96.0036 11° North 363 418 39,000  Level Kansas City Center
10:59AM 36.1608 -95.9736 12° North 361 415 39,000  Level Kansas City Center
11:00AM 36.2581 -95.9492 11° North 356 410 39,000  Level Kansas City Center
11:01AM 36.3561 -95.9247 11° North 356 410 39,000  Level Kansas City Center
11:02AM 36.4542 -95.8986 12° North 356 410 39,000  Level Kansas City Center
11:03AM 36.5519 -95.8731 12° North 355 409 39,000  Level Kansas City Center
11:04AM 36.6503 -95.8478 12° North 355 409 39,000  Level Kansas City Center
11:06AM 36.7483 -95.8225 12° North 356 410 39,000  Level Kansas City Center
11:07AM 36.8464 -95.7967 12° North 357 411 39,000  Level Kansas City Center
11:08AM 36.9633 -95.7669 11° North 355 409 39,000  Level Kansas City Center
11:09AM 37.0594 -95.7422 12° North 352 405 39,000  Level Kansas City Center
11:10AM 37.1533 -95.7178 12° North 347 399 39,000 -540 Level Kansas City Center
11:11AM 37.2497 -95.6931 12° North 348 400 38,000 -1,020 Descending Kansas City Center
11:12AM 37.3517 -95.6675 11° North 359 413 37,000 -1,020 Descending Kansas City Center
11:13AM 37.4581 -95.6406 11° North 378 435 36,000 -540 Descending Kansas City Center
11:14AM 37.5636 -95.6111 12° North 386 444 36,000 -900 Level Kansas City Center
11:15AM 37.6931 -95.5831 10° North 391 450 34,200 -1,680 Descending Kansas City Center
11:16AM 37.8022 -95.5694 North 394 453 32,600 -1,800 Descending Kansas City Center
11:17AM 37.9083 -95.5536 North 386 444 30,500 -1,980 Descending Kansas City Center
11:18AM 38.0044 -95.5408 North 378 435 28,600 -2,040 Descending Kansas City Center
11:19AM 38.1178 -95.5239 North 368 423 26,400 -2,100 Descending Kansas City Center
11:20AM 38.2139 -95.5103 North 362 417 24,300 -2,160 Descending Kansas City Center
11:21AM 38.3278 -95.4939 North 368 423 22,000 -2,220 Descending Kansas City Center
11:22AM 38.4319 -95.4778 North 390 449 19,800 -2,280 Descending Kansas City Center
11:23AM 38.5494 -95.4597 North 381 438 17,400 -2,040 Descending Kansas City Center
11:24AM 38.6319 -95.4458 North 311 358 15,700 -1,800 Descending Kansas City Center
11:25AM 38.6931 -95.3544 49° Northeast 316 364 13,700 -1,920 Descending Kansas City Center
11:26AM 38.7361 -95.2550 61° Northeast 331 381 11,800 -2,040 Descending Kansas City Center
11:27AM 38.7847 -95.1439 61° Northeast 321 369 9,500 -2,100 Descending Kansas City Center
11:28AM 38.8189 -95.0603 62° Northeast 281 323 7,500 -1,680 Descending Kansas City Center
11:29AM 38.8572 -94.9683 62° Northeast 265 305 6,100 -1,200 Descending Kansas City Center
11:30AM 38.8914 -94.8922 60° Northeast 259 298 5,100 -1,020 Descending Kansas City Center
11:31AM 38.9322 -94.8094 58° Northeast 249 287 4,000 -540 Descending Kansas City Center
11:32AM 38.9686 -94.7394 56° Northeast 247 284 4,000 -420 Level Kansas City Center
11:33AM 39.0247 -94.6850 37° Northeast 229 264 3,200 -1,020 Descending Kansas City Center
11:34AM 39.0672 -94.6456 36° Northeast 200 230 2,000 -960 Descending Kansas City Center
11:35AM 39.0931 -94.6039 51° Northeast 136 157 1,300 -540 Descending Kansas City Center
11:37AM 39.1189 -94.5908 21° North 122 140 1,000 -300 Descending Kansas City Center